Terminal Aerodrome Forecast
Issued by NWS Bismarck, ND

Home | Current Version | Previous Version | Text Only | Print | Product List | Glossary Off
Versions: 1 2 3 4 5 6 7 8 9 10 11 12 13 14 15 16 17 18 19 20 21 22 23 24

000
FTUS43 KBIS 011654 AAA
TAFISN
TAF AMD
KISN 011654Z 0117/0212 04005KT P6SM OVC020
      TEMPO 0118/0121 BKN030
     FM012100 01006KT P6SM VCTS SCT050CB BKN080
     FM020000 03006KT P6SM SKC=

USA.gov is the U.S. government's official web portal to all federal, state and local government web resources and services.